sensor_id;sensor_type;location;lat;lon;timestamp;temperature;humidity
3075;DHT22;1548;51.716;8.748;2022-07-15T00:02:19;16.10;73.00
3075;DHT22;1548;51.716;8.748;2022-07-15T00:04:45;16.20;73.00
3075;DHT22;1548;51.716;8.748;2022-07-15T00:07:11;16.00;73.20
3075;DHT22;1548;51.716;8.748;2022-07-15T00:09:37;16.00;73.50
3075;DHT22;1548;51.716;8.748;2022-07-15T00:12:22;16.10;73.40
3075;DHT22;1548;51.716;8.748;2022-07-15T00:14:47;16.10;73.60
3075;DHT22;1548;51.716;8.748;2022-07-15T00:17:13;16.00;73.80
3075;DHT22;1548;51.716;8.748;2022-07-15T00:19:39;16.00;73.80
3075;DHT22;1548;51.716;8.748;2022-07-15T00:22:05;16.10;73.60
3075;DHT22;1548;51.716;8.748;2022-07-15T00:24:30;16.10;73.70
3075;DHT22;1548;51.716;8.748;2022-07-15T00:26:56;16.10;73.70
3075;DHT22;1548;51.716;8.748;2022-07-15T00:29:22;16.00;73.90
3075;DHT22;1548;51.716;8.748;2022-07-15T00:31:48;16.00;74.00
3075;DHT22;1548;51.716;8.748;2022-07-15T00:34:13;16.00;74.00
3075;DHT22;1548;51.716;8.748;2022-07-15T00:36:39;16.00;74.10
3075;DHT22;1548;51.716;8.748;2022-07-15T00:39:05;15.90;74.20
3075;DHT22;1548;51.716;8.748;2022-07-15T00:41:41;15.90;74.40
3075;DHT22;1548;51.716;8.748;2022-07-15T00:44:07;15.90;74.20
3075;DHT22;1548;51.716;8.748;2022-07-15T00:46:35;16.00;74.10
3075;DHT22;1548;51.716;8.748;2022-07-15T00:49:02;16.00;74.20
3075;DHT22;1548;51.716;8.748;2022-07-15T00:51:34;16.10;74.10
3075;DHT22;1548;51.716;8.748;2022-07-15T00:54:02;16.00;74.20
3075;DHT22;1548;51.716;8.748;2022-07-15T00:56:29;16.00;74.30
3075;DHT22;1548;51.716;8.748;2022-07-15T00:58:57;16.10;74.30
3075;DHT22;1548;51.716;8.748;2022-07-15T01:01:23;16.20;74.20
3075;DHT22;1548;51.716;8.748;2022-07-15T01:03:49;16.20;74.00
3075;DHT22;1548;51.716;8.748;2022-07-15T01:06:15;16.30;74.00
3075;DHT22;1548;51.716;8.748;2022-07-15T01:08:41;16.30;74.00
3075;DHT22;1548;51.716;8.748;2022-07-15T01:11:07;16.10;74.10
3075;DHT22;1548;51.716;8.748;2022-07-15T01:13:33;16.10;74.30
3075;DHT22;1548;51.716;8.748;2022-07-15T01:15:59;16.00;74.30
3075;DHT22;1548;51.716;8.748;2022-07-15T01:18:24;15.80;74.60
3075;DHT22;1548;51.716;8.748;2022-07-15T01:20:50;15.60;74.90
3075;DHT22;1548;51.716;8.748;2022-07-15T01:23:17;15.50;75.20
3075;DHT22;1548;51.716;8.748;2022-07-15T01:25:42;15.30;75.40
3075;DHT22;1548;51.716;8.748;2022-07-15T01:28:10;15.30;75.40
3075;DHT22;1548;51.716;8.748;2022-07-15T01:30:37;15.30;75.60
3075;DHT22;1548;51.716;8.748;2022-07-15T01:33:03;15.40;75.50
3075;DHT22;1548;51.716;8.748;2022-07-15T01:35:29;15.30;75.50
3075;DHT22;1548;51.716;8.748;2022-07-15T01:37:55;15.30;75.60
3075;DHT22;1548;51.716;8.748;2022-07-15T01:40:20;15.20;75.60
3075;DHT22;1548;51.716;8.748;2022-07-15T01:42:46;15.30;75.60
3075;DHT22;1548;51.716;8.748;2022-07-15T01:45:12;15.40;75.50
3075;DHT22;1548;51.716;8.748;2022-07-15T01:47:48;15.30;75.40
3075;DHT22;1548;51.716;8.748;2022-07-15T01:50:14;15.30;75.70
3075;DHT22;1548;51.716;8.748;2022-07-15T01:52:40;15.30;75.60
3075;DHT22;1548;51.716;8.748;2022-07-15T01:55:08;15.50;75.40
3075;DHT22;1548;51.716;8.748;2022-07-15T01:57:34;15.60;75.10
3075;DHT22;1548;51.716;8.748;2022-07-15T01:59:59;15.40;75.20
3075;DHT22;1548;51.716;8.748;2022-07-15T02:02:25;15.30;75.20
3075;DHT22;1548;51.716;8.748;2022-07-15T02:04:51;15.30;75.70
3075;DHT22;1548;51.716;8.748;2022-07-15T02:07:16;15.30;75.50
3075;DHT22;1548;51.716;8.748;2022-07-15T02:09:42;15.20;75.50
3075;DHT22;1548;51.716;8.748;2022-07-15T02:12:08;15.20;75.50
3075;DHT22;1548;51.716;8.748;2022-07-15T02:14:34;15.10;75.70
3075;DHT22;1548;51.716;8.748;2022-07-15T02:17:00;15.10;75.70
3075;DHT22;1548;51.716;8.748;2022-07-15T02:19:26;15.20;75.90
3075;DHT22;1548;51.716;8.748;2022-07-15T02:21:51;15.20;75.80
3075;DHT22;1548;51.716;8.748;2022-07-15T02:24:17;15.10;75.80
3075;DHT22;1548;51.716;8.748;2022-07-15T02:26:45;15.10;75.80
3075;DHT22;1548;51.716;8.748;2022-07-15T02:29:10;15.10;76.00
3075;DHT22;1548;51.716;8.748;2022-07-15T02:31:36;15.10;75.90
3075;DHT22;1548;51.716;8.748;2022-07-15T02:34:02;15.10;75.80
3075;DHT22;1548;51.716;8.748;2022-07-15T02:36:28;15.00;75.90
3075;DHT22;1548;51.716;8.748;2022-07-15T02:38:54;14.90;76.10
3075;DHT22;1548;51.716;8.748;2022-07-15T02:41:20;14.70;76.30
3075;DHT22;1548;51.716;8.748;2022-07-15T02:43:45;14.70;76.70
3075;DHT22;1548;51.716;8.748;2022-07-15T02:46:11;14.70;76.60
3075;DHT22;1548;51.716;8.748;2022-07-15T02:48:37;14.80;76.70
3075;DHT22;1548;51.716;8.748;2022-07-15T02:51:03;14.80;76.60
3075;DHT22;1548;51.716;8.748;2022-07-15T02:53:29;14.80;76.80
3075;DHT22;1548;51.716;8.748;2022-07-15T02:55:58;14.70;76.70
3075;DHT22;1548;51.716;8.748;2022-07-15T02:58:24;14.80;76.70
3075;DHT22;1548;51.716;8.748;2022-07-15T03:00:50;14.70;76.80
3075;DHT22;1548;51.716;8.748;2022-07-15T03:03:16;14.70;76.90
3075;DHT22;1548;51.716;8.748;2022-07-15T03:05:41;14.60;76.80
3075;DHT22;1548;51.716;8.748;2022-07-15T03:08:07;14.60;76.90
3075;DHT22;1548;51.716;8.748;2022-07-15T03:10:33;14.60;77.10
3075;DHT22;1548;51.716;8.748;2022-07-15T03:12:58;14.60;76.90
3075;DHT22;1548;51.716;8.748;2022-07-15T03:15:25;14.50;77.00
3075;DHT22;1548;51.716;8.748;2022-07-15T03:17:51;14.40;77.10
3075;DHT22;1548;51.716;8.748;2022-07-15T03:20:16;14.30;77.20
3075;DHT22;1548;51.716;8.748;2022-07-15T03:22:42;14.20;77.30
3075;DHT22;1548;51.716;8.748;2022-07-15T03:25:08;14.10;77.50
3075;DHT22;1548;51.716;8.748;2022-07-15T03:27:33;14.00;77.40
3075;DHT22;1548;51.716;8.748;2022-07-15T03:30:00;14.00;77.50
3075;DHT22;1548;51.716;8.748;2022-07-15T03:32:26;13.80;77.40
3075;DHT22;1548;51.716;8.748;2022-07-15T03:34:52;13.90;77.70
3075;DHT22;1548;51.716;8.748;2022-07-15T03:37:18;13.90;77.60
3075;DHT22;1548;51.716;8.748;2022-07-15T03:39:44;14.10;77.80
3075;DHT22;1548;51.716;8.748;2022-07-15T03:42:10;14.20;77.50
3075;DHT22;1548;51.716;8.748;2022-07-15T03:44:35;14.20;77.50
3075;DHT22;1548;51.716;8.748;2022-07-15T03:47:01;14.10;77.50
3075;DHT22;1548;51.716;8.748;2022-07-15T03:49:27;14.10;77.40
3075;DHT22;1548;51.716;8.748;2022-07-15T03:51:53;14.00;77.60
3075;DHT22;1548;51.716;8.748;2022-07-15T03:54:18;14.20;77.80
3075;DHT22;1548;51.716;8.748;2022-07-15T03:56:44;14.10;77.50
3075;DHT22;1548;51.716;8.748;2022-07-15T03:59:13;14.10;77.80
3075;DHT22;1548;51.716;8.748;2022-07-15T04:01:39;14.20;77.70
3075;DHT22;1548;51.716;8.748;2022-07-15T04:04:05;14.20;77.60
3075;DHT22;1548;51.716;8.748;2022-07-15T04:06:31;14.20;77.70
3075;DHT22;1548;51.716;8.748;2022-07-15T04:08:58;14.00;77.70
3075;DHT22;1548;51.716;8.748;2022-07-15T04:11:24;14.10;77.90
3075;DHT22;1548;51.716;8.748;2022-07-15T04:13:50;14.00;77.80
3075;DHT22;1548;51.716;8.748;2022-07-15T04:16:15;14.00;77.80
3075;DHT22;1548;51.716;8.748;2022-07-15T04:18:41;14.00;77.80
3075;DHT22;1548;51.716;8.748;2022-07-15T04:21:07;14.00;77.80
3075;DHT22;1548;51.716;8.748;2022-07-15T04:23:33;14.20;77.90
3075;DHT22;1548;51.716;8.748;2022-07-15T04:25:58;14.10;77.90
3075;DHT22;1548;51.716;8.748;2022-07-15T04:28:24;14.10;77.90
3075;DHT22;1548;51.716;8.748;2022-07-15T04:30:50;14.10;77.80
3075;DHT22;1548;51.716;8.748;2022-07-15T04:33:16;14.20;77.80
3075;DHT22;1548;51.716;8.748;2022-07-15T04:35:42;14.20;77.70
3075;DHT22;1548;51.716;8.748;2022-07-15T04:38:09;14.30;77.80
3075;DHT22;1548;51.716;8.748;2022-07-15T04:40:35;14.40;77.80
3075;DHT22;1548;51.716;8.748;2022-07-15T04:43:01;14.50;77.60
3075;DHT22;1548;51.716;8.748;2022-07-15T04:45:27;14.40;77.60
3075;DHT22;1548;51.716;8.748;2022-07-15T04:47:53;14.40;77.70
3075;DHT22;1548;51.716;8.748;2022-07-15T04:50:19;14.60;77.60
3075;DHT22;1548;51.716;8.748;2022-07-15T04:53:04;14.70;77.70
3075;DHT22;1548;51.716;8.748;2022-07-15T04:55:29;14.60;77.50
3075;DHT22;1548;51.716;8.748;2022-07-15T04:57:55;14.80;77.90
3075;DHT22;1548;51.716;8.748;2022-07-15T05:00:21;14.70;77.40
3075;DHT22;1548;51.716;8.748;2022-07-15T05:02:46;14.60;77.40
3075;DHT22;1548;51.716;8.748;2022-07-15T05:05:12;14.50;77.40
3075;DHT22;1548;51.716;8.748;2022-07-15T05:07:38;14.60;77.70
3075;DHT22;1548;51.716;8.748;2022-07-15T05:10:05;14.70;77.50
3075;DHT22;1548;51.716;8.748;2022-07-15T05:12:30;14.70;77.30
3075;DHT22;1548;51.716;8.748;2022-07-15T05:14:56;14.70;77.30
3075;DHT22;1548;51.716;8.748;2022-07-15T05:17:22;14.40;77.40
3075;DHT22;1548;51.716;8.748;2022-07-15T05:19:47;14.40;77.40
3075;DHT22;1548;51.716;8.748;2022-07-15T05:22:13;14.40;77.60
3075;DHT22;1548;51.716;8.748;2022-07-15T05:24:38;14.30;77.70
3075;DHT22;1548;51.716;8.748;2022-07-15T05:27:04;14.50;78.00
3075;DHT22;1548;51.716;8.748;2022-07-15T05:29:30;14.70;77.80
3075;DHT22;1548;51.716;8.748;2022-07-15T05:31:55;14.60;77.20
3075;DHT22;1548;51.716;8.748;2022-07-15T05:34:21;14.60;77.30
3075;DHT22;1548;51.716;8.748;2022-07-15T05:36:46;14.60;77.50
3075;DHT22;1548;51.716;8.748;2022-07-15T05:39:12;14.60;77.40
3075;DHT22;1548;51.716;8.748;2022-07-15T05:41:37;14.50;77.40
3075;DHT22;1548;51.716;8.748;2022-07-15T05:44:03;14.50;77.40
3075;DHT22;1548;51.716;8.748;2022-07-15T05:46:29;14.70;77.60
3075;DHT22;1548;51.716;8.748;2022-07-15T05:48:54;14.50;77.20
3075;DHT22;1548;51.716;8.748;2022-07-15T05:51:20;14.40;77.40
3075;DHT22;1548;51.716;8.748;2022-07-15T05:53:46;14.60;77.50
3075;DHT22;1548;51.716;8.748;2022-07-15T05:56:11;14.80;77.20
3075;DHT22;1548;51.716;8.748;2022-07-15T05:58:37;14.90;76.90
3075;DHT22;1548;51.716;8.748;2022-07-15T06:01:03;14.90;76.60
3075;DHT22;1548;51.716;8.748;2022-07-15T06:03:29;14.90;76.30
3075;DHT22;1548;51.716;8.748;2022-07-15T06:05:55;14.90;76.60
3075;DHT22;1548;51.716;8.748;2022-07-15T06:08:21;15.00;76.70
3075;DHT22;1548;51.716;8.748;2022-07-15T06:10:47;14.90;76.10
3075;DHT22;1548;51.716;8.748;2022-07-15T06:13:12;15.10;75.80
3075;DHT22;1548;51.716;8.748;2022-07-15T06:15:38;15.30;75.80
3075;DHT22;1548;51.716;8.748;2022-07-15T06:18:04;15.40;75.60
3075;DHT22;1548;51.716;8.748;2022-07-15T06:20:30;15.60;75.10
3075;DHT22;1548;51.716;8.748;2022-07-15T06:22:55;15.60;74.80
3075;DHT22;1548;51.716;8.748;2022-07-15T06:25:21;15.70;74.70
3075;DHT22;1548;51.716;8.748;2022-07-15T06:27:47;15.90;74.70
3075;DHT22;1548;51.716;8.748;2022-07-15T06:30:13;16.00;74.30
3075;DHT22;1548;51.716;8.748;2022-07-15T06:32:39;16.20;74.00
3075;DHT22;1548;51.716;8.748;2022-07-15T06:35:05;16.40;73.00
3075;DHT22;1548;51.716;8.748;2022-07-15T06:37:31;16.30;73.40
3075;DHT22;1548;51.716;8.748;2022-07-15T06:39:57;16.20;73.30
3075;DHT22;1548;51.716;8.748;2022-07-15T06:42:23;16.00;72.70
3075;DHT22;1548;51.716;8.748;2022-07-15T06:44:49;16.00;73.30
3075;DHT22;1548;51.716;8.748;2022-07-15T06:47:14;16.20;72.80
3075;DHT22;1548;51.716;8.748;2022-07-15T06:49:41;16.30;72.70
3075;DHT22;1548;51.716;8.748;2022-07-15T06:52:06;16.10;72.90
3075;DHT22;1548;51.716;8.748;2022-07-15T06:54:32;16.20;72.90
3075;DHT22;1548;51.716;8.748;2022-07-15T06:56:58;16.50;72.90
3075;DHT22;1548;51.716;8.748;2022-07-15T06:59:25;16.80;72.60
3075;DHT22;1548;51.716;8.748;2022-07-15T07:01:51;16.80;71.60
3075;DHT22;1548;51.716;8.748;2022-07-15T07:04:17;16.40;71.70
3075;DHT22;1548;51.716;8.748;2022-07-15T07:06:43;16.60;72.10
3075;DHT22;1548;51.716;8.748;2022-07-15T07:09:09;16.60;71.70
3075;DHT22;1548;51.716;8.748;2022-07-15T07:11:35;16.80;71.70
3075;DHT22;1548;51.716;8.748;2022-07-15T07:14:00;16.90;71.70
3075;DHT22;1548;51.716;8.748;2022-07-15T07:16:26;17.10;71.70
3075;DHT22;1548;51.716;8.748;2022-07-15T07:18:52;17.20;71.40
3075;DHT22;1548;51.716;8.748;2022-07-15T07:21:19;16.70;71.30
3075;DHT22;1548;51.716;8.748;2022-07-15T07:23:45;16.40;72.50
3075;DHT22;1548;51.716;8.748;2022-07-15T07:26:12;16.70;72.10
3075;DHT22;1548;51.716;8.748;2022-07-15T07:28:39;16.50;71.70
3075;DHT22;1548;51.716;8.748;2022-07-15T07:31:10;16.40;72.10
3075;DHT22;1548;51.716;8.748;2022-07-15T07:33:37;16.70;72.00
3075;DHT22;1548;51.716;8.748;2022-07-15T07:36:04;16.60;71.60
3075;DHT22;1548;51.716;8.748;2022-07-15T07:38:34;16.60;71.70
3075;DHT22;1548;51.716;8.748;2022-07-15T07:41:01;16.60;71.50
3075;DHT22;1548;51.716;8.748;2022-07-15T07:43:27;16.60;71.60
3075;DHT22;1548;51.716;8.748;2022-07-15T07:45:53;16.80;71.30
3075;DHT22;1548;51.716;8.748;2022-07-15T07:48:20;16.80;70.90
3075;DHT22;1548;51.716;8.748;2022-07-15T07:50:46;16.80;71.20
3075;DHT22;1548;51.716;8.748;2022-07-15T07:53:12;16.80;71.00
3075;DHT22;1548;51.716;8.748;2022-07-15T07:55:38;17.00;71.20
3075;DHT22;1548;51.716;8.748;2022-07-15T07:58:04;17.00;71.10
3075;DHT22;1548;51.716;8.748;2022-07-15T08:00:31;17.30;70.80
3075;DHT22;1548;51.716;8.748;2022-07-15T08:02:58;17.50;69.50
3075;DHT22;1548;51.716;8.748;2022-07-15T08:05:25;17.60;69.30
3075;DHT22;1548;51.716;8.748;2022-07-15T08:08:25;17.50;69.50
3075;DHT22;1548;51.716;8.748;2022-07-15T08:10:56;17.50;69.60
3075;DHT22;1548;51.716;8.748;2022-07-15T08:13:25;17.60;69.10
3075;DHT22;1548;51.716;8.748;2022-07-15T08:15:52;17.70;69.30
3075;DHT22;1548;51.716;8.748;2022-07-15T08:18:20;17.80;69.30
3075;DHT22;1548;51.716;8.748;2022-07-15T08:20:45;18.00;68.90
3075;DHT22;1548;51.716;8.748;2022-07-15T08:23:11;17.90;68.90
3075;DHT22;1548;51.716;8.748;2022-07-15T08:25:38;17.80;68.90
3075;DHT22;1548;51.716;8.748;2022-07-15T08:28:05;18.00;68.40
3075;DHT22;1548;51.716;8.748;2022-07-15T08:30:32;17.80;68.40
3075;DHT22;1548;51.716;8.748;2022-07-15T08:32:59;17.80;68.40
3075;DHT22;1548;51.716;8.748;2022-07-15T08:35:25;18.00;68.10
3075;DHT22;1548;51.716;8.748;2022-07-15T08:37:51;17.90;68.10
3075;DHT22;1548;51.716;8.748;2022-07-15T08:40:17;17.90;67.30
3075;DHT22;1548;51.716;8.748;2022-07-15T08:42:43;17.90;67.00
3075;DHT22;1548;51.716;8.748;2022-07-15T08:45:12;18.00;66.70
3075;DHT22;1548;51.716;8.748;2022-07-15T08:47:40;18.00;66.50
3075;DHT22;1548;51.716;8.748;2022-07-15T08:50:09;18.20;66.20
3075;DHT22;1548;51.716;8.748;2022-07-15T08:52:40;18.30;66.00
3075;DHT22;1548;51.716;8.748;2022-07-15T08:55:06;18.40;66.00
3075;DHT22;1548;51.716;8.748;2022-07-15T08:57:32;18.10;66.70
3075;DHT22;1548;51.716;8.748;2022-07-15T08:59:59;18.00;67.00
3075;DHT22;1548;51.716;8.748;2022-07-15T09:02:24;17.90;67.40
3075;DHT22;1548;51.716;8.748;2022-07-15T09:10:23;18.00;66.70
3075;DHT22;1548;51.716;8.748;2022-07-15T09:12:51;18.00;66.30
3075;DHT22;1548;51.716;8.748;2022-07-15T09:15:30;18.40;65.90
3075;DHT22;1548;51.716;8.748;2022-07-15T09:18:12;18.90;65.30
3075;DHT22;1548;51.716;8.748;2022-07-15T09:20:39;18.80;65.40
3075;DHT22;1548;51.716;8.748;2022-07-15T09:23:06;18.30;65.60
3075;DHT22;1548;51.716;8.748;2022-07-15T09:25:33;18.10;66.30
3075;DHT22;1548;51.716;8.748;2022-07-15T09:28:00;17.80;66.40
3075;DHT22;1548;51.716;8.748;2022-07-15T09:30:35;18.20;66.10
3075;DHT22;1548;51.716;8.748;2022-07-15T09:33:30;18.40;65.20
3075;DHT22;1548;51.716;8.748;2022-07-15T09:36:15;18.50;64.50
3075;DHT22;1548;51.716;8.748;2022-07-15T09:38:51;18.20;64.90
3075;DHT22;1548;51.716;8.748;2022-07-15T09:41:33;18.20;65.20
3075;DHT22;1548;51.716;8.748;2022-07-15T09:49:14;18.70;63.00
3075;DHT22;1548;51.716;8.748;2022-07-15T09:54:31;19.00;62.60
3075;DHT22;1548;51.716;8.748;2022-07-15T09:56:59;18.90;61.40
3075;DHT22;1548;51.716;8.748;2022-07-15T09:59:26;18.70;62.40
3075;DHT22;1548;51.716;8.748;2022-07-15T10:01:52;18.50;63.20
3075;DHT22;1548;51.716;8.748;2022-07-15T10:04:21;18.60;63.40
3075;DHT22;1548;51.716;8.748;2022-07-15T10:06:48;18.40;63.70
3075;DHT22;1548;51.716;8.748;2022-07-15T10:09:14;18.80;63.10
3075;DHT22;1548;51.716;8.748;2022-07-15T10:11:49;19.10;62.40
3075;DHT22;1548;51.716;8.748;2022-07-15T10:14:55;18.80;62.70
3075;DHT22;1548;51.716;8.748;2022-07-15T10:25:28;19.80;60.20
3075;DHT22;1548;51.716;8.748;2022-07-15T10:28:07;19.40;60.50
3075;DHT22;1548;51.716;8.748;2022-07-15T10:30:35;19.50;60.00
3075;DHT22;1548;51.716;8.748;2022-07-15T10:33:10;19.60;59.10
3075;DHT22;1548;51.716;8.748;2022-07-15T10:35:53;19.70;59.10
3075;DHT22;1548;51.716;8.748;2022-07-15T10:38:35;19.70;59.40
3075;DHT22;1548;51.716;8.748;2022-07-15T10:41:10;19.70;58.80
3075;DHT22;1548;51.716;8.748;2022-07-15T10:46:19;19.40;58.70
3075;DHT22;1548;51.716;8.748;2022-07-15T10:48:47;19.80;58.50
3075;DHT22;1548;51.716;8.748;2022-07-15T10:56:46;20.00;58.00
3075;DHT22;1548;51.716;8.748;2022-07-15T10:59:20;19.80;58.20
3075;DHT22;1548;51.716;8.748;2022-07-15T11:02:10;19.80;57.90
3075;DHT22;1548;51.716;8.748;2022-07-15T11:04:34;20.10;57.80
3075;DHT22;1548;51.716;8.748;2022-07-15T11:15:05;20.20;56.60
3075;DHT22;1548;51.716;8.748;2022-07-15T11:20:03;19.90;58.60
3075;DHT22;1548;51.716;8.748;2022-07-15T11:22:35;20.00;58.60
3075;DHT22;1548;51.716;8.748;2022-07-15T11:25:01;20.20;58.10
3075;DHT22;1548;51.716;8.748;2022-07-15T11:27:27;20.20;58.40
3075;DHT22;1548;51.716;8.748;2022-07-15T11:30:01;20.10;57.90
3075;DHT22;1548;51.716;8.748;2022-07-15T11:32:32;20.10;58.30
3075;DHT22;1548;51.716;8.748;2022-07-15T11:34:59;20.10;57.60
3075;DHT22;1548;51.716;8.748;2022-07-15T11:37:27;20.00;58.00
3075;DHT22;1548;51.716;8.748;2022-07-15T11:40:14;20.30;58.00
3075;DHT22;1548;51.716;8.748;2022-07-15T11:42:59;19.90;57.10
3075;DHT22;1548;51.716;8.748;2022-07-15T11:45:43;19.40;57.90
3075;DHT22;1548;51.716;8.748;2022-07-15T11:48:13;19.30;58.80
3075;DHT22;1548;51.716;8.748;2022-07-15T11:50:50;19.50;58.20
3075;DHT22;1548;51.716;8.748;2022-07-15T11:53:16;19.90;58.20
3075;DHT22;1548;51.716;8.748;2022-07-15T11:55:53;19.90;58.20
3075;DHT22;1548;51.716;8.748;2022-07-15T12:01:13;20.60;57.00
3075;DHT22;1548;51.716;8.748;2022-07-15T12:03:44;20.80;56.60
3075;DHT22;1548;51.716;8.748;2022-07-15T12:06:16;20.80;56.60
3075;DHT22;1548;51.716;8.748;2022-07-15T12:08:59;21.00;55.50
3075;DHT22;1548;51.716;8.748;2022-07-15T12:11:33;21.00;55.60
3075;DHT22;1548;51.716;8.748;2022-07-15T12:14:00;21.00;54.50
3075;DHT22;1548;51.716;8.748;2022-07-15T12:19:08;20.30;55.10
3075;DHT22;1548;51.716;8.748;2022-07-15T12:21:38;20.70;55.20
3075;DHT22;1548;51.716;8.748;2022-07-15T12:24:15;21.00;54.40
3075;DHT22;1548;51.716;8.748;2022-07-15T12:26:55;21.30;54.00
3075;DHT22;1548;51.716;8.748;2022-07-15T12:29:29;21.00;54.30
3075;DHT22;1548;51.716;8.748;2022-07-15T12:32:06;20.70;55.10
3075;DHT22;1548;51.716;8.748;2022-07-15T12:34:54;21.00;54.20
3075;DHT22;1548;51.716;8.748;2022-07-15T12:37:26;21.30;53.60
3075;DHT22;1548;51.716;8.748;2022-07-15T12:39:57;21.30;53.90
3075;DHT22;1548;51.716;8.748;2022-07-15T12:42:24;21.40;53.20
3075;DHT22;1548;51.716;8.748;2022-07-15T12:45:10;21.10;53.90
3075;DHT22;1548;51.716;8.748;2022-07-15T12:47:37;21.20;53.90
3075;DHT22;1548;51.716;8.748;2022-07-15T12:50:21;21.40;53.30
3075;DHT22;1548;51.716;8.748;2022-07-15T12:52:46;21.40;53.40
3075;DHT22;1548;51.716;8.748;2022-07-15T12:57:38;21.60;54.10
3075;DHT22;1548;51.716;8.748;2022-07-15T13:00:14;21.50;53.70
3075;DHT22;1548;51.716;8.748;2022-07-15T13:05:42;22.00;53.20
3075;DHT22;1548;51.716;8.748;2022-07-15T13:08:12;21.90;53.00
3075;DHT22;1548;51.716;8.748;2022-07-15T13:10:40;21.40;53.70
3075;DHT22;1548;51.716;8.748;2022-07-15T13:13:08;21.50;53.30
3075;DHT22;1548;51.716;8.748;2022-07-15T13:15:34;21.40;52.90
3075;DHT22;1548;51.716;8.748;2022-07-15T13:18:00;20.80;54.10
3075;DHT22;1548;51.716;8.748;2022-07-15T13:20:26;21.30;54.40
3075;DHT22;1548;51.716;8.748;2022-07-15T13:22:52;21.50;52.80
3075;DHT22;1548;51.716;8.748;2022-07-15T13:25:18;21.80;52.70
3075;DHT22;1548;51.716;8.748;2022-07-15T13:27:45;21.80;51.90
3075;DHT22;1548;51.716;8.748;2022-07-15T13:30:11;21.60;52.00
3075;DHT22;1548;51.716;8.748;2022-07-15T13:32:37;21.30;52.60
3075;DHT22;1548;51.716;8.748;2022-07-15T13:35:06;21.30;52.40
3075;DHT22;1548;51.716;8.748;2022-07-15T13:37:32;21.40;52.00
3075;DHT22;1548;51.716;8.748;2022-07-15T13:39:58;21.60;51.80
3075;DHT22;1548;51.716;8.748;2022-07-15T13:42:24;21.20;52.20
3075;DHT22;1548;51.716;8.748;2022-07-15T13:44:53;21.40;52.30
3075;DHT22;1548;51.716;8.748;2022-07-15T13:47:19;21.70;51.80
3075;DHT22;1548;51.716;8.748;2022-07-15T13:49:45;21.70;50.70
3075;DHT22;1548;51.716;8.748;2022-07-15T13:52:29;21.90;50.70
3075;DHT22;1548;51.716;8.748;2022-07-15T13:54:55;21.80;51.20
3075;DHT22;1548;51.716;8.748;2022-07-15T13:57:20;21.70;51.60
3075;DHT22;1548;51.716;8.748;2022-07-15T13:59:46;21.70;51.20
3075;DHT22;1548;51.716;8.748;2022-07-15T14:02:12;21.80;50.90
3075;DHT22;1548;51.716;8.748;2022-07-15T14:04:38;21.80;51.50
3075;DHT22;1548;51.716;8.748;2022-07-15T14:07:04;21.70;51.80
3075;DHT22;1548;51.716;8.748;2022-07-15T14:09:29;21.60;51.30
3075;DHT22;1548;51.716;8.748;2022-07-15T14:11:55;21.30;51.90
3075;DHT22;1548;51.716;8.748;2022-07-15T14:14:21;21.30;52.50
3075;DHT22;1548;51.716;8.748;2022-07-15T14:16:47;21.00;52.70
3075;DHT22;1548;51.716;8.748;2022-07-15T14:19:14;20.80;53.10
3075;DHT22;1548;51.716;8.748;2022-07-15T14:21:40;20.90;53.30
3075;DHT22;1548;51.716;8.748;2022-07-15T14:24:06;20.90;53.40
3075;DHT22;1548;51.716;8.748;2022-07-15T14:26:32;20.90;53.00
3075;DHT22;1548;51.716;8.748;2022-07-15T14:28:58;21.00;52.60
3075;DHT22;1548;51.716;8.748;2022-07-15T14:31:23;21.20;52.10
3075;DHT22;1548;51.716;8.748;2022-07-15T14:33:49;21.40;51.60
3075;DHT22;1548;51.716;8.748;2022-07-15T14:36:15;21.40;51.50
3075;DHT22;1548;51.716;8.748;2022-07-15T14:38:41;21.40;51.70
3075;DHT22;1548;51.716;8.748;2022-07-15T14:41:07;21.20;52.00
3075;DHT22;1548;51.716;8.748;2022-07-15T14:43:34;21.10;52.70
3075;DHT22;1548;51.716;8.748;2022-07-15T14:46:00;21.10;52.60
3075;DHT22;1548;51.716;8.748;2022-07-15T14:48:26;21.00;52.80
3075;DHT22;1548;51.716;8.748;2022-07-15T14:50:53;21.00;53.00
3075;DHT22;1548;51.716;8.748;2022-07-15T14:53:18;20.90;52.70
3075;DHT22;1548;51.716;8.748;2022-07-15T14:55:44;21.10;53.00
3075;DHT22;1548;51.716;8.748;2022-07-15T14:58:10;21.20;52.70
3075;DHT22;1548;51.716;8.748;2022-07-15T15:00:42;21.30;52.70
3075;DHT22;1548;51.716;8.748;2022-07-15T15:03:08;21.30;52.60
3075;DHT22;1548;51.716;8.748;2022-07-15T15:05:34;21.30;52.20
3075;DHT22;1548;51.716;8.748;2022-07-15T15:08:00;21.20;51.70
3075;DHT22;1548;51.716;8.748;2022-07-15T15:10:26;21.20;52.00
3075;DHT22;1548;51.716;8.748;2022-07-15T15:12:51;21.10;52.30
3075;DHT22;1548;51.716;8.748;2022-07-15T15:15:17;21.10;52.20
3075;DHT22;1548;51.716;8.748;2022-07-15T15:17:43;20.90;52.60
3075;DHT22;1548;51.716;8.748;2022-07-15T15:20:10;20.70;53.10
3075;DHT22;1548;51.716;8.748;2022-07-15T15:22:37;20.80;53.10
3075;DHT22;1548;51.716;8.748;2022-07-15T15:25:04;20.80;53.10
3075;DHT22;1548;51.716;8.748;2022-07-15T15:27:30;20.80;52.90
3075;DHT22;1548;51.716;8.748;2022-07-15T15:29:56;20.80;52.80
3075;DHT22;1548;51.716;8.748;2022-07-15T15:32:22;20.70;53.40
3075;DHT22;1548;51.716;8.748;2022-07-15T15:34:48;20.80;53.60
3075;DHT22;1548;51.716;8.748;2022-07-15T15:37:14;20.80;53.20
3075;DHT22;1548;51.716;8.748;2022-07-15T15:39:39;20.90;53.40
3075;DHT22;1548;51.716;8.748;2022-07-15T15:42:06;21.00;53.20
3075;DHT22;1548;51.716;8.748;2022-07-15T15:44:31;20.80;53.60
3075;DHT22;1548;51.716;8.748;2022-07-15T15:46:57;20.80;53.70
3075;DHT22;1548;51.716;8.748;2022-07-15T15:49:23;20.90;53.80
3075;DHT22;1548;51.716;8.748;2022-07-15T15:51:49;21.10;53.60
3075;DHT22;1548;51.716;8.748;2022-07-15T15:54:14;21.20;53.60
3075;DHT22;1548;51.716;8.748;2022-07-15T15:56:40;21.30;53.20
3075;DHT22;1548;51.716;8.748;2022-07-15T15:59:06;21.40;53.20
3075;DHT22;1548;51.716;8.748;2022-07-15T16:01:33;21.70;52.90
3075;DHT22;1548;51.716;8.748;2022-07-15T16:03:58;22.20;52.20
3075;DHT22;1548;51.716;8.748;2022-07-15T16:06:24;22.50;51.30
3075;DHT22;1548;51.716;8.748;2022-07-15T16:08:50;22.60;51.20
3075;DHT22;1548;51.716;8.748;2022-07-15T16:11:16;22.50;51.40
3075;DHT22;1548;51.716;8.748;2022-07-15T16:13:42;22.50;51.20
3075;DHT22;1548;51.716;8.748;2022-07-15T16:16:08;21.90;52.30
3075;DHT22;1548;51.716;8.748;2022-07-15T16:18:33;21.60;52.90
3075;DHT22;1548;51.716;8.748;2022-07-15T16:20:59;21.50;53.30
3075;DHT22;1548;51.716;8.748;2022-07-15T16:23:25;21.80;52.70
3075;DHT22;1548;51.716;8.748;2022-07-15T16:25:51;22.10;52.40
3075;DHT22;1548;51.716;8.748;2022-07-15T16:28:17;22.80;51.20
3075;DHT22;1548;51.716;8.748;2022-07-15T16:30:44;23.20;50.40
3075;DHT22;1548;51.716;8.748;2022-07-15T16:33:10;23.20;50.10
3075;DHT22;1548;51.716;8.748;2022-07-15T16:35:36;22.80;51.00
3075;DHT22;1548;51.716;8.748;2022-07-15T16:38:03;22.50;51.20
3075;DHT22;1548;51.716;8.748;2022-07-15T16:40:29;22.50;51.30
3075;DHT22;1548;51.716;8.748;2022-07-15T16:42:55;22.40;51.70
3075;DHT22;1548;51.716;8.748;2022-07-15T16:45:21;22.00;52.30
3075;DHT22;1548;51.716;8.748;2022-07-15T16:47:47;22.00;52.70
3075;DHT22;1548;51.716;8.748;2022-07-15T16:50:13;22.40;51.90
3075;DHT22;1548;51.716;8.748;2022-07-15T16:52:39;22.20;52.40
3075;DHT22;1548;51.716;8.748;2022-07-15T16:55:05;22.20;52.10
3075;DHT22;1548;51.716;8.748;2022-07-15T16:57:32;22.00;52.60